Please enter the email address associated with your User account. Your username will be emailed to the email address on file.

METAR TAF

[Source: ADDS]
METAR
LFCR 300530Z AUTO 18002KT 6000 VV/// M07/M08 Q1023 TEMPO 0300 FZFG =
LFCR 300500Z 3006/0106 VRB03KT 4000 BR NSC PROB30 TEMPO 3006/3008 0500 FZFG VV/// BECMG 3008/3010 CAVOK BECMG 0101/0103 BKN005 TEMPO 0103/0106 3000 -RA OVC002 LFBA 300530Z AUTO 12004KT 0450 0400 R29/0550N FZFG VV/// M01/M01 Q1026 =
LFBA 300500Z 3006/3015 11005KT 0400 FZFG VV/// BECMG 3010/3012 9999 NSW BKN004 LFSL 300530Z AUTO VRB03KT 0800 0650 R29/0700D FZFG VV/// M05/M05 Q1025 TEMPO 0300 =
LFSL 300500Z 3006/3015 VRB02KT 3000 BR NSC TEMPO 3006/3008 0500 FZFG VV/// PROB30 TEMPO 3006/3008 0300 BECMG 3008/3010 CAVOK LFLW 300100Z AUTO 10003KT CAVOK M09/M10 Q1022 =
LFLW 300500Z 3006/3015 VRB02KT CAVOK TEMPO 3006/3008 3000 BR
TAF
LFCR 300500Z 3006/0106 VRB03KT 4000 BR NSC PROB30 TEMPO 3006/3008 0500 FZFG VV/// BECMG 3008/3010 CAVOK BECMG 0101/0103 BKN005 TEMPO 0103/0106 3000 -RA OVC002 =
LFBA 300500Z 3006/3015 11005KT 0400 FZFG VV/// BECMG 3010/3012 9999 NSW BKN004 =
LFSL 300500Z 3006/3015 VRB02KT 3000 BR NSC TEMPO 3006/3008 0500 FZFG VV/// PROB30 TEMPO 3006/3008 0300 BECMG 3008/3010 CAVOK =
LFLW 300500Z 3006/3015 VRB02KT CAVOK TEMPO 3006/3008 3000 BR =
SR / SS: 07:09 / 16:16 UTC (LFCC 2021-11-30)